Time;durP1;ratioP1;P1;durP2;ratioP2;P2;SDS_P1;SDS_P2;PMS_P1;PMS_P2;Temp;Humidity;BMP_temperature;BMP_pressure;BME280_temperature;BME280_humidity;BME280_pressure;Samples;Min_cycle;Max_cycle;Signal;HPM_P1;HPM_P2
2023/06/11 00:01:41;;;;;;;5.28;3.15;;;11.50;99.90;;;;;;21069671;28;20032;-48
2023/06/11 00:11:43;;;;;;;3.85;2.60;;;11.50;99.90;;;;;;21068960;28;20036;-48
2023/06/11 00:21:48;;;;;;;5.45;3.03;;;11.40;99.90;;;;;;21066072;28;20039;-50
2023/06/11 00:31:50;;;;;;;4.13;2.97;;;11.40;99.90;;;;;;21067306;28;20032;-49
2023/06/11 00:41:53;;;;;;;3.28;2.50;;;11.30;99.90;;;;;;21066947;28;20053;-50
2023/06/11 00:51:54;;;;;;;2.88;2.58;;;11.40;99.90;;;;;;21066890;28;20051;-45
2023/06/11 01:02:17;;;;;;;3.67;2.75;;;11.40;99.90;;;;;;21048015;28;20036;-50
2023/06/11 01:12:20;;;;;;;4.65;2.67;;;11.00;99.90;;;;;;21063332;28;20401;-48
2023/06/11 01:22:54;;;;;;;3.20;2.53;;;10.80;99.90;;;;;;21082884;28;20028;-46
2023/06/11 01:32:57;;;;;;;2.65;2.00;;;10.80;99.90;;;;;;20820420;28;20045;-49
2023/06/11 01:43:03;;;;;;;2.10;1.33;;;11.20;99.90;;;;;;20805329;28;20053;-48
2023/06/11 01:53:06;;;;;;;2.20;1.50;;;11.40;99.90;;;;;;20804589;28;20095;-47
2023/06/11 02:03:08;;;;;;;3.28;1.25;;;11.60;99.90;;;;;;20877368;28;20417;-43
2023/06/11 02:13:10;;;;;;;1.92;1.45;;;11.70;99.90;;;;;;21060313;28;20033;-48
2023/06/11 02:23:12;;;;;;;2.65;1.40;;;11.60;99.90;;;;;;21060264;28;20480;-44
2023/06/11 02:33:13;;;;;;;2.10;1.48;;;11.40;99.90;;;;;;21075671;28;20077;-48
2023/06/11 02:43:15;;;;;;;3.47;1.35;;;11.40;99.90;;;;;;21076153;28;20036;-43
2023/06/11 02:53:17;;;;;;;3.35;1.42;;;11.40;99.90;;;;;;21076748;28;20469;-49
2023/06/11 03:03:18;;;;;;;1.70;1.33;;;11.50;99.90;;;;;;21054617;28;20033;-45
2023/06/11 03:13:23;;;;;;;1.60;1.40;;;11.50;99.90;;;;;;21055276;28;20101;-44
2023/06/11 03:23:27;;;;;;;4.38;1.60;;;11.50;99.90;;;;;;21055029;28;20058;-48
2023/06/11 03:33:28;;;;;;;2.47;1.67;;;11.50;99.90;;;;;;21053645;28;20066;-44
2023/06/11 03:43:30;;;;;;;2.83;1.67;;;11.50;99.90;;;;;;21052837;28;20588;-43
2023/06/11 03:53:32;;;;;;;4.88;1.92;;;11.10;99.90;;;;;;21052344;28;20095;-47
2023/06/11 04:03:34;;;;;;;3.78;1.88;;;10.70;99.90;;;;;;21051499;28;20038;-48
2023/06/11 04:13:36;;;;;;;3.53;2.10;;;10.60;99.90;;;;;;21069150;28;20152;-46
2023/06/11 04:23:38;;;;;;;2.67;2.20;;;10.40;99.90;;;;;;21050497;28;20040;-43
2023/06/11 04:33:41;;;;;;;3.33;1.90;;;10.40;99.90;;;;;;21049466;28;20424;-43
2023/06/11 04:43:44;;;;;;;4.03;2.35;;;10.40;99.90;;;;;;21067110;28;20388;-43
2023/06/11 04:53:46;;;;;;;4.25;2.28;;;10.50;99.90;;;;;;21047879;28;20093;-43
2023/06/11 05:03:51;;;;;;;2.30;2.00;;;10.50;99.90;;;;;;21047715;28;20036;-47
2023/06/11 05:13:52;;;;;;;3.15;2.10;;;10.50;99.90;;;;;;21064236;28;20066;-44
2023/06/11 05:23:56;;;;;;;2.80;1.95;;;10.70;99.90;;;;;;21047433;28;20035;-44
2023/06/11 05:33:58;;;;;;;2.10;1.90;;;10.80;99.90;;;;;;21064994;28;20044;-49
2023/06/11 05:44:01;;;;;;;2.40;1.73;;;11.00;99.90;;;;;;21046129;28;20032;-48
2023/06/11 05:54:03;;;;;;;1.90;1.70;;;11.30;99.90;;;;;;21064242;28;20031;-43
2023/06/11 06:04:05;;;;;;;3.05;1.60;;;11.60;99.90;;;;;;21088372;28;20033;-47
2023/06/11 06:14:07;;;;;;;1.30;0.98;;;12.00;99.90;;;;;;21062062;28;20050;-43
2023/06/11 06:24:11;;;;;;;1.67;1.10;;;15.90;99.90;;;;;;21055806;28;20028;-52
2023/06/11 06:34:13;;;;;;;0.90;0.88;;;18.70;99.90;;;;;;21087343;28;20085;-47
2023/06/11 06:44:16;;;;;;;0.80;0.80;;;20.20;99.90;;;;;;21057970;28;20555;-53
2023/06/11 06:54:18;;;;;;;0.98;0.88;;;20.80;99.90;;;;;;21057258;28;20048;-50
2023/06/11 07:04:21;;;;;;;2.00;1.00;;;22.30;99.20;;;;;;21056608;28;20044;-55
2023/06/11 07:14:23;;;;;;;1.30;1.20;;;24.50;98.40;;;;;;21072855;28;20032;-55
2023/06/11 07:24:25;;;;;;;1.70;1.60;;;25.70;96.70;;;;;;21051840;28;20109;-57
2023/06/11 07:34:27;;;;;;;1.58;1.45;;;27.10;94.80;;;;;;21083171;28;20389;-56
2023/06/11 07:44:29;;;;;;;1.52;1.30;;;26.60;94.70;;;;;;21053010;28;20539;-46
2023/06/11 07:54:31;;;;;;;1.73;1.60;;;26.20;94.70;;;;;;21070980;28;20028;-46
2023/06/11 08:04:34;;;;;;;2.30;1.73;;;26.50;95.10;;;;;;21069507;28;20039;-55
2023/06/11 08:14:35;;;;;;;1.95;1.70;;;26.30;94.40;;;;;;21069174;28;20100;-57
2023/06/11 08:24:37;;;;;;;3.83;1.58;;;26.20;96.20;;;;;;21068310;28;20028;-57
2023/06/11 08:34:39;;;;;;;1.85;1.75;;;26.30;97.00;;;;;;21056168;28;20489;-57
2023/06/11 08:44:41;;;;;;;1.90;1.60;;;26.40;97.10;;;;;;21067042;28;20046;-46
2023/06/11 08:54:42;;;;;;;1.63;1.52;;;26.30;95.50;;;;;;21066967;28;20546;-57
2023/06/11 09:04:44;;;;;;;1.80;1.70;;;26.50;95.70;;;;;;21062979;28;20086;-57
2023/06/11 09:14:52;;;;;;;1.83;1.65;;;26.90;95.00;;;;;;21065406;28;20073;-57
2023/06/11 09:24:54;;;;;;;1.90;1.80;;;26.70;94.30;;;;;;21061306;28;20032;-57
2023/06/11 09:34:56;;;;;;;2.10;1.88;;;27.10;96.40;;;;;;21067821;28;20048;-57
2023/06/11 09:44:59;;;;;;;1.90;1.80;;;27.10;93.90;;;;;;21062511;28;20035;-55
2023/06/11 09:55:03;;;;;;;3.38;2.33;;;25.00;97.50;;;;;;21080587;28;20047;-54
2023/06/11 10:05:06;;;;;;;2.50;2.30;;;25.50;97.80;;;;;;21077275;28;20431;-47
2023/06/11 10:15:12;;;;;;;2.80;2.17;;;24.70;96.10;;;;;;21074750;28;20032;-50
2023/06/11 10:25:13;;;;;;;2.70;2.50;;;24.90;98.60;;;;;;21077248;28;20464;-52
2023/06/11 10:35:22;;;;;;;3.38;3.08;;;24.30;98.90;;;;;;21076662;28;20393;-50
2023/06/11 10:45:34;;;;;;;3.28;2.97;;;23.80;99.90;;;;;;21075211;28;20032;-54
2023/06/11 10:55:41;;;;;;;4.80;4.32;;;23.50;99.20;;;;;;21057034;28;20125;-50
2023/06/11 11:05:43;;;;;;;5.50;4.90;;;22.30;99.90;;;;;;21074121;28;20040;-49
2023/06/11 11:15:45;;;;;;;7.88;5.18;;;21.30;99.90;;;;;;21072869;28;20097;-51
2023/06/11 11:25:46;;;;;;;5.93;5.32;;;21.60;99.90;;;;;;21072732;28;20097;-46
2023/06/11 11:35:55;;;;;;;6.10;5.50;;;22.60;99.90;;;;;;21072191;28;20036;-57
2023/06/11 11:45:57;;;;;;;7.28;4.50;;;24.20;99.90;;;;;;21068334;28;20039;-57
2023/06/11 11:55:59;;;;;;;4.40;4.00;;;25.90;99.90;;;;;;21070254;28;20045;-54
2023/06/11 12:06:03;;;;;;;4.28;3.60;;;24.10;99.60;;;;;;21067166;28;20035;-53
2023/06/11 12:16:08;;;;;;;4.88;4.47;;;21.70;99.90;;;;;;21067871;28;20028;-46
2023/06/11 12:26:13;;;;;;;5.45;4.95;;;20.50;99.90;;;;;;21069084;28;20042;-49
2023/06/11 12:36:15;;;;;;;5.55;5.00;;;20.90;99.90;;;;;;21063864;28;20062;-51
2023/06/11 12:46:17;;;;;;;4.85;4.35;;;21.80;99.90;;;;;;21066935;28;20036;-55
2023/06/11 12:56:22;;;;;;;6.57;4.72;;;21.20;99.90;;;;;;21066001;28;20054;-52
2023/06/11 13:06:24;;;;;;;7.20;6.50;;;20.40;99.90;;;;;;21064243;28;20436;-49
2023/06/11 13:16:26;;;;;;;5.75;5.25;;;19.90;99.90;;;;;;21045853;28;20044;-53
2023/06/11 13:26:27;;;;;;;6.45;5.00;;;19.30;99.90;;;;;;21064826;28;20031;-51
2023/06/11 13:36:29;;;;;;;3.70;3.00;;;19.30;99.90;;;;;;21064356;28;20085;-52
2023/06/11 13:46:31;;;;;;;3.83;2.50;;;19.90;99.90;;;;;;21065364;28;20044;-53
2023/06/11 13:56:32;;;;;;;2.60;2.40;;;21.40;99.90;;;;;;21063813;28;20024;-57
2023/06/11 14:06:36;;;;;;;2.33;2.10;;;23.30;99.90;;;;;;21062019;28;20429;-57
2023/06/11 14:16:38;;;;;;;2.22;2.00;;;24.80;97.30;;;;;;21063077;28;20105;-57
2023/06/11 14:26:40;;;;;;;2.42;2.20;;;25.90;93.80;;;;;;21073594;28;20035;-56
2023/06/11 14:36:42;;;;;;;3.35;2.30;;;26.00;96.10;;;;;;21077161;28;20047;-55
2023/06/11 14:46:43;;;;;;;2.53;2.33;;;25.60;94.80;;;;;;21076523;28;20036;-51
2023/06/11 14:56:45;;;;;;;2.50;2.30;;;24.10;96.40;;;;;;21075409;28;20043;-53
2023/06/11 15:06:46;;;;;;;3.65;3.03;;;22.50;98.60;;;;;;21057182;28;20028;-51
2023/06/11 15:16:48;;;;;;;4.38;2.88;;;21.50;99.90;;;;;;21073870;28;20397;-51
2023/06/11 15:26:49;;;;;;;4.18;2.80;;;20.90;99.90;;;;;;21072680;28;20035;-50
2023/06/11 15:36:51;;;;;;;3.50;3.20;;;20.50;99.90;;;;;;21071829;28;20102;-50
2023/06/11 15:46:53;;;;;;;3.42;3.13;;;20.20;99.90;;;;;;21071263;28;20032;-53
2023/06/11 15:56:54;;;;;;;5.05;3.28;;;20.00;99.90;;;;;;21070737;28;20036;-53
2023/06/11 16:06:56;;;;;;;4.53;3.80;;;19.60;99.90;;;;;;21068589;28;20085;-52
2023/06/11 16:16:58;;;;;;;5.25;3.80;;;19.50;99.90;;;;;;21068985;28;20028;-49
2023/06/11 16:27:00;;;;;;;4.75;4.13;;;19.30;99.90;;;;;;21050602;28;20044;-52
2023/06/11 16:37:02;;;;;;;5.45;4.47;;;19.20;99.90;;;;;;21066482;28;20540;-54
2023/06/11 16:47:04;;;;;;;5.15;4.65;;;19.10;99.90;;;;;;21066336;28;20089;-49
2023/06/11 16:57:06;;;;;;;5.60;4.70;;;18.80;99.90;;;;;;21066538;28;20461;-49
2023/06/11 17:07:08;;;;;;;4.28;3.75;;;18.70;99.90;;;;;;21066616;28;20028;-48
2023/06/11 17:17:10;;;;;;;4.30;3.90;;;18.40;99.90;;;;;;21065890;28;20028;-50
2023/06/11 17:27:12;;;;;;;5.10;4.60;;;18.00;99.90;;;;;;21065326;28;20085;-49
2023/06/11 17:37:13;;;;;;;5.43;4.93;;;17.40;99.90;;;;;;21059779;28;20044;-48
2023/06/11 17:47:15;;;;;;;6.20;5.53;;;17.00;99.90;;;;;;21046353;28;20101;-51
2023/06/11 17:57:18;;;;;;;5.60;4.70;;;16.50;99.90;;;;;;21069255;28;20043;-45
2023/06/11 18:07:20;;;;;;;4.97;4.45;;;16.20;99.90;;;;;;21080123;28;20443;-48
2023/06/11 18:17:21;;;;;;;5.95;4.88;;;16.00;99.90;;;;;;21078899;28;20181;-48
2023/06/11 18:27:23;;;;;;;8.10;4.68;;;15.80;99.90;;;;;;21078177;28;20032;-49
2023/06/11 18:37:25;;;;;;;10.00;6.03;;;15.50;99.90;;;;;;21076078;28;20040;-47
2023/06/11 18:47:27;;;;;;;7.80;5.93;;;15.30;99.90;;;;;;21076189;28;20028;-47
2023/06/11 18:57:28;;;;;;;7.20;6.30;;;15.00;99.90;;;;;;21075651;28;20070;-48
2023/06/11 19:07:31;;;;;;;10.10;6.93;;;14.80;99.90;;;;;;21072551;28;20089;-47
2023/06/11 19:17:37;;;;;;;9.80;8.80;;;14.70;99.90;;;;;;21071301;28;20496;-48
2023/06/11 19:27:39;;;;;;;12.73;10.48;;;14.60;99.90;;;;;;21073070;28;20381;-48
2023/06/11 19:37:41;;;;;;;11.35;10.23;;;14.60;99.90;;;;;;21070534;28;20112;-48
2023/06/11 19:47:42;;;;;;;9.65;8.65;;;14.60;99.90;;;;;;21071229;28;20032;-52
2023/06/11 19:57:44;;;;;;;10.73;9.57;;;14.60;99.90;;;;;;21070868;28;20024;-48
2023/06/11 20:07:46;;;;;;;15.32;8.80;;;14.50;99.90;;;;;;21070251;28;20089;-48
2023/06/11 20:17:47;;;;;;;13.38;11.98;;;14.40;99.90;;;;;;21068935;28;20032;-48
2023/06/11 20:27:49;;;;;;;12.10;10.18;;;14.30;99.90;;;;;;21068686;28;20043;-49
2023/06/11 20:37:51;;;;;;;14.10;12.52;;;14.50;99.90;;;;;;21067952;28;20561;-48
2023/06/11 20:47:54;;;;;;;3.00;2.58;;;14.50;99.90;;;;;;21067528;28;20027;-50
2023/06/11 20:57:56;;;;;;;2.75;2.25;;;14.00;99.90;;;;;;21066746;28;20032;-49
2023/06/11 21:07:58;;;;;;;3.17;2.30;;;13.10;99.90;;;;;;21066517;28;20043;-47
2023/06/11 21:17:59;;;;;;;3.50;2.78;;;12.60;99.90;;;;;;21047677;28;20035;-48
2023/06/11 21:28:01;;;;;;;6.72;3.00;;;12.30;99.90;;;;;;21065378;28;20028;-50
2023/06/11 21:38:02;;;;;;;3.55;2.75;;;12.10;99.90;;;;;;21080708;28;20094;-51
2023/06/11 21:48:04;;;;;;;4.20;2.63;;;12.00;99.90;;;;;;21081227;28;20081;-48
2023/06/11 21:58:06;;;;;;;3.13;2.42;;;11.90;99.90;;;;;;21080161;28;20032;-49
2023/06/11 22:08:07;;;;;;;3.38;2.70;;;11.80;99.90;;;;;;21079977;28;20039;-48
2023/06/11 22:18:09;;;;;;;2.72;2.45;;;11.80;99.90;;;;;;21075321;28;20378;-52
2023/06/11 22:28:10;;;;;;;3.72;3.33;;;11.80;99.90;;;;;;21078097;28;20031;-49
2023/06/11 22:38:12;;;;;;;4.68;3.47;;;11.70;99.90;;;;;;21077705;28;20554;-48
2023/06/11 22:48:14;;;;;;;4.32;3.20;;;11.70;99.90;;;;;;21076545;28;20082;-50
2023/06/11 22:58:16;;;;;;;5.72;3.40;;;11.70;99.90;;;;;;21075759;28;20113;-50
2023/06/11 23:08:17;;;;;;;5.32;3.75;;;11.70;99.90;;;;;;21075265;28;20172;-51
2023/06/11 23:18:19;;;;;;;6.45;4.40;;;11.60;99.90;;;;;;21074207;28;20032;-52
2023/06/11 23:28:22;;;;;;;5.75;4.10;;;11.60;99.90;;;;;;21074501;28;20396;-48
2023/06/11 23:38:23;;;;;;;3.83;3.20;;;11.60;99.90;;;;;;21072484;28;20109;-49
2023/06/11 23:48:25;;;;;;;4.90;3.90;;;11.40;99.90;;;;;;21071537;28;20032;-48
2023/06/11 23:58:27;;;;;;;7.57;4.05;;;11.20;99.90;;;;;;21070285;28;20024;-44
